Time;durP1;ratioP1;P1;durP2;ratioP2;P2;SDS_P1;SDS_P2;PMS_P1;PMS_P2;Temp;Humidity;BMP_temperature;BMP_pressure;BME280_temperature;BME280_humidity;BME280_pressure;Samples;Min_cycle;Max_cycle;Signal;HPM_P1;HPM_P2
2021/10/19 00:01:53;;;;;;;1.23;0.30;;;;;;;;;;5033836;28;20492;-72
2021/10/19 00:04:18;;;;;;;1.93;0.40;;;;;;;;;;5033953;28;20029;-71
2021/10/19 00:06:54;;;;;;;1.23;0.35;;;;;;;;;;5032739;28;20278;-72
2021/10/19 00:09:20;;;;;;;0.65;0.20;;;;;;;;;;5033975;28;20030;-71
2021/10/19 00:11:47;;;;;;;1.02;0.50;;;;;;;;;;5033522;28;20494;-71
2021/10/19 00:14:13;;;;;;;0.50;0.30;;;;;;;;;;5033881;28;20021;-70
2021/10/19 00:16:49;;;;;;;0.88;0.30;;;;;;;;;;5033899;28;20396;-70
2021/10/19 00:19:15;;;;;;;1.15;0.40;;;;;;;;;;5032552;28;20108;-69
2021/10/19 00:21:42;;;;;;;0.68;0.40;;;;;;;;;;5037411;28;20495;-70
2021/10/19 00:24:09;;;;;;;0.60;0.45;;;;;;;;;;5038059;28;20132;-70
2021/10/19 00:26:34;;;;;;;0.90;0.30;;;;;;;;;;5037819;28;20029;-69
2021/10/19 00:29:05;;;;;;;0.95;0.47;;;;;;;;;;5036633;28;20488;-71
2021/10/19 00:31:31;;;;;;;1.45;0.32;;;;;;;;;;5037610;28;20460;-71
2021/10/19 00:34:24;;;;;;;1.00;0.57;;;;;;;;;;5037971;28;20338;-70
2021/10/19 00:36:50;;;;;;;0.68;0.47;;;;;;;;;;4957571;29;20067;-70
2021/10/19 00:39:24;;;;;;;1.00;0.75;;;;;;;;;;4957541;29;20031;-70
2021/10/19 00:41:50;;;;;;;0.20;0.20;;;;;;;;;;4957546;29;20525;-70
2021/10/19 00:44:17;;;;;;;0.95;0.22;;;;;;;;;;4957519;29;20151;-70
2021/10/19 00:46:44;;;;;;;1.50;0.40;;;;;;;;;;4957369;29;20414;-70
2021/10/19 00:49:11;;;;;;;0.85;0.40;;;;;;;;;;4941342;29;20019;-70
2021/10/19 00:51:37;;;;;;;1.90;0.57;;;;;;;;;;4957180;29;20474;-72
2021/10/19 00:54:05;;;;;;;0.63;0.30;;;;;;;;;;4957280;29;20043;-71
2021/10/19 00:56:31;;;;;;;0.88;0.30;;;;;;;;;;4941079;29;20510;-71
2021/10/19 00:59:05;;;;;;;1.33;0.30;;;;;;;;;;4941379;29;20034;-71
2021/10/19 01:01:30;;;;;;;1.15;0.40;;;;;;;;;;4956170;29;20549;-72
2021/10/19 01:03:57;;;;;;;1.17;0.40;;;;;;;;;;4957073;29;20147;-72
2021/10/19 01:06:22;;;;;;;1.58;0.40;;;;;;;;;;4956963;29;20035;-71
2021/10/19 01:08:49;;;;;;;0.70;0.43;;;;;;;;;;4956985;29;20489;-72
2021/10/19 01:11:23;;;;;;;0.88;0.50;;;;;;;;;;4956762;29;20369;-73
2021/10/19 01:13:51;;;;;;;0.52;0.13;;;;;;;;;;4995777;28;20025;-73
2021/10/19 01:16:17;;;;;;;1.10;0.30;;;;;;;;;;5035694;28;20032;-72
2021/10/19 01:18:43;;;;;;;1.02;0.25;;;;;;;;;;5036937;28;20025;-71
2021/10/19 01:21:10;;;;;;;0.22;0.10;;;;;;;;;;5036988;28;20025;-71
2021/10/19 01:23:37;;;;;;;0.40;0.17;;;;;;;;;;5035714;28;20391;-72
2021/10/19 01:26:16;;;;;;;0.60;0.15;;;;;;;;;;5035698;28;20021;-71
2021/10/19 01:28:43;;;;;;;0.65;0.30;;;;;;;;;;5036884;28;20017;-71
2021/10/19 01:31:12;;;;;;;0.60;0.22;;;;;;;;;;5036563;28;20017;-71
2021/10/19 01:33:39;;;;;;;0.55;0.20;;;;;;;;;;5036266;28;20014;-70
2021/10/19 01:36:12;;;;;;;0.63;0.25;;;;;;;;;;5036639;28;20468;-72
2021/10/19 01:38:57;;;;;;;0.20;0.10;;;;;;;;;;5036541;28;20660;-71
2021/10/19 01:41:22;;;;;;;0.25;0.13;;;;;;;;;;5036501;28;20022;-71
2021/10/19 01:43:50;;;;;;;1.83;0.30;;;;;;;;;;5036346;28;20120;-70
2021/10/19 01:46:25;;;;;;;0.40;0.25;;;;;;;;;;5036416;28;20018;-73
2021/10/19 01:48:51;;;;;;;1.25;0.40;;;;;;;;;;5036319;28;20048;-71
2021/10/19 01:51:18;;;;;;;1.02;0.38;;;;;;;;;;5036200;28;20361;-70
2021/10/19 01:53:54;;;;;;;0.30;0.10;;;;;;;;;;5036113;28;20372;-70
2021/10/19 01:56:19;;;;;;;0.50;0.20;;;;;;;;;;5034821;28;20029;-72
2021/10/19 01:58:44;;;;;;;0.20;0.13;;;;;;;;;;5036098;28;20013;-71
2021/10/19 02:01:10;;;;;;;1.45;0.30;;;;;;;;;;5043096;23;20349;-71
2021/10/19 02:03:35;;;;;;;0.85;0.20;;;;;;;;;;5035836;28;20139;-70
2021/10/19 02:06:00;;;;;;;0.15;0.10;;;;;;;;;;5035969;28;20096;-70
2021/10/19 02:08:25;;;;;;;0.77;0.45;;;;;;;;;;5035865;28;20025;-71
2021/10/19 02:10:52;;;;;;;1.23;0.30;;;;;;;;;;5036067;28;20025;-70
2021/10/19 02:13:17;;;;;;;0.35;0.13;;;;;;;;;;5034471;28;20040;-69
2021/10/19 02:15:43;;;;;;;1.13;0.30;;;;;;;;;;5035435;28;20017;-69
2021/10/19 02:18:11;;;;;;;0.90;0.20;;;;;;;;;;5035704;28;20017;-70
2021/10/19 02:20:39;;;;;;;1.08;0.30;;;;;;;;;;5035613;28;20422;-71
2021/10/19 02:23:04;;;;;;;0.35;0.10;;;;;;;;;;5035504;28;20461;-70
2021/10/19 02:25:30;;;;;;;0.82;0.30;;;;;;;;;;5035186;28;20026;-69
2021/10/19 02:28:25;;;;;;;0.15;0.15;;;;;;;;;;5035700;28;20025;-71
2021/10/19 02:31:00;;;;;;;1.17;0.38;;;;;;;;;;4974506;28;20042;-71
2021/10/19 02:33:25;;;;;;;0.52;0.30;;;;;;;;;;4958075;28;20030;-69
2021/10/19 02:35:53;;;;;;;1.25;0.20;;;;;;;;;;4974690;28;20474;-71
2021/10/19 02:38:19;;;;;;;1.13;0.35;;;;;;;;;;4958129;28;20158;-71
2021/10/19 02:40:57;;;;;;;1.02;0.30;;;;;;;;;;4974587;28;20454;-71
2021/10/19 02:43:23;;;;;;;0.32;0.10;;;;;;;;;;4973415;28;20030;-71
2021/10/19 02:46:02;;;;;;;0.47;0.30;;;;;;;;;;4974086;28;20442;-71
2021/10/19 02:48:28;;;;;;;0.55;0.10;;;;;;;;;;4974110;28;20390;-70
2021/10/19 02:50:54;;;;;;;1.00;0.35;;;;;;;;;;4974333;28;20577;-70
2021/10/19 02:53:21;;;;;;;0.50;0.30;;;;;;;;;;4974112;28;20521;-73
2021/10/19 02:55:47;;;;;;;0.77;0.20;;;;;;;;;;4974140;28;20421;-71
2021/10/19 02:58:14;;;;;;;0.35;0.20;;;;;;;;;;4958139;28;20389;-70
2021/10/19 03:00:39;;;;;;;0.20;0.20;;;;;;;;;;4971181;28;20039;-69
2021/10/19 03:03:04;;;;;;;1.13;0.30;;;;;;;;;;4974182;28;20043;-70
2021/10/19 03:05:30;;;;;;;0.13;0.10;;;;;;;;;;4974110;28;20114;-71
2021/10/19 03:08:03;;;;;;;0.38;0.20;;;;;;;;;;5022460;28;20708;-71
2021/10/19 03:10:28;;;;;;;0.45;0.20;;;;;;;;;;5034820;28;20037;-70
2021/10/19 03:12:53;;;;;;;0.82;0.30;;;;;;;;;;5034571;28;20026;-69
2021/10/19 03:15:28;;;;;;;0.30;0.20;;;;;;;;;;5034733;28;20453;-72
2021/10/19 03:18:02;;;;;;;0.47;0.10;;;;;;;;;;5033349;28;20029;-71
2021/10/19 03:20:29;;;;;;;0.43;0.38;;;;;;;;;;5034545;28;20104;-70
2021/10/19 03:23:20;;;;;;;0.75;0.45;;;;;;;;;;5034542;28;20021;-71
2021/10/19 03:26:03;;;;;;;0.93;0.20;;;;;;;;;;4993231;28;20065;-72
2021/10/19 03:28:28;;;;;;;0.40;0.20;;;;;;;;;;4993006;28;20033;-71
2021/10/19 03:31:19;;;;;;;0.50;0.20;;;;;;;;;;4992961;28;20038;-72
2021/10/19 03:33:46;;;;;;;1.55;0.10;;;;;;;;;;4976353;28;20033;-72
2021/10/19 03:36:11;;;;;;;0.22;0.20;;;;;;;;;;4992827;28;20501;-70
2021/10/19 03:38:37;;;;;;;0.93;0.30;;;;;;;;;;4992650;28;20054;-70
2021/10/19 03:41:03;;;;;;;0.80;0.20;;;;;;;;;;4992877;28;20136;-71
2021/10/19 03:43:29;;;;;;;0.65;0.10;;;;;;;;;;4992723;28;20125;-72
2021/10/19 03:45:55;;;;;;;0.80;0.10;;;;;;;;;;4992937;28;20034;-70
2021/10/19 03:48:20;;;;;;;0.90;0.40;;;;;;;;;;4976292;28;20019;-70
2021/10/19 03:50:45;;;;;;;0.32;0.20;;;;;;;;;;4992741;28;20030;-70
2021/10/19 03:53:28;;;;;;;0.30;0.15;;;;;;;;;;4992773;28;20085;-71
2021/10/19 03:55:55;;;;;;;1.00;0.30;;;;;;;;;;4992260;28;20477;-72
2021/10/19 03:58:22;;;;;;;0.82;0.30;;;;;;;;;;4992500;28;20145;-71
2021/10/19 04:00:48;;;;;;;0.45;0.32;;;;;;;;;;4992226;28;20588;-72
2021/10/19 04:03:18;;;;;;;0.70;0.10;;;;;;;;;;5019932;28;20069;-71
2021/10/19 04:05:49;;;;;;;0.57;0.20;;;;;;;;;;5032791;28;20026;-72
2021/10/19 04:08:14;;;;;;;0.40;0.20;;;;;;;;;;5034031;28;20112;-70
2021/10/19 04:10:42;;;;;;;1.20;0.47;;;;;;;;;;5033908;28;20159;-70
2021/10/19 04:13:09;;;;;;;1.65;0.20;;;;;;;;;;5033863;28;20803;-71
2021/10/19 04:15:35;;;;;;;0.38;0.17;;;;;;;;;;5033792;28;20021;-71
2021/10/19 04:18:01;;;;;;;0.80;0.20;;;;;;;;;;5032709;28;20466;-72
2021/10/19 04:20:29;;;;;;;1.38;0.45;;;;;;;;;;5033956;28;20013;-72
2021/10/19 04:23:07;;;;;;;1.85;0.30;;;;;;;;;;5033778;28;20411;-71
2021/10/19 04:25:32;;;;;;;1.42;0.40;;;;;;;;;;5033589;28;20057;-70
2021/10/19 04:28:07;;;;;;;0.37;0.17;;;;;;;;;;5033913;28;20044;-73
2021/10/19 04:30:34;;;;;;;0.43;0.20;;;;;;;;;;5033684;28;20257;-72
2021/10/19 04:33:00;;;;;;;0.10;0.00;;;;;;;;;;5033601;28;20051;-69
2021/10/19 04:35:25;;;;;;;0.95;0.10;;;;;;;;;;5033365;28;20104;-69
2021/10/19 04:38:04;;;;;;;1.17;0.10;;;;;;;;;;5033512;28;20100;-70
2021/10/19 04:40:29;;;;;;;2.38;0.40;;;;;;;;;;5032259;28;20017;-71
2021/10/19 04:42:54;;;;;;;0.57;0.20;;;;;;;;;;5033653;28;20019;-71
2021/10/19 04:45:28;;;;;;;0.20;0.13;;;;;;;;;;5033308;28;20036;-70
2021/10/19 04:47:58;;;;;;;0.90;0.10;;;;;;;;;;5033552;28;20068;-71
2021/10/19 04:50:34;;;;;;;0.70;0.20;;;;;;;;;;5033569;28;20029;-71
2021/10/19 04:53:00;;;;;;;1.23;0.17;;;;;;;;;;5032248;28;20096;-70
2021/10/19 04:55:25;;;;;;;1.30;0.30;;;;;;;;;;5033468;28;20052;-70
2021/10/19 04:57:50;;;;;;;0.20;0.17;;;;;;;;;;5033356;28;20519;-70
2021/10/19 05:00:16;;;;;;;1.15;0.13;;;;;;;;;;5033157;28;20349;-70
2021/10/19 05:02:42;;;;;;;1.85;0.20;;;;;;;;;;5033340;28;20030;-70
2021/10/19 05:05:09;;;;;;;1.30;0.30;;;;;;;;;;5033438;28;20029;-70
2021/10/19 05:07:35;;;;;;;1.13;0.28;;;;;;;;;;5035024;28;20025;-70
2021/10/19 05:10:00;;;;;;;0.20;0.10;;;;;;;;;;5035783;28;20530;-70
2021/10/19 05:12:26;;;;;;;0.40;0.20;;;;;;;;;;5036599;28;20029;-70
2021/10/19 05:14:59;;;;;;;0.30;0.10;;;;;;;;;;5036751;28;20475;-72
2021/10/19 05:17:24;;;;;;;0.88;0.15;;;;;;;;;;5036734;28;20254;-71
2021/10/19 05:20:17;;;;;;;0.63;0.30;;;;;;;;;;5036721;28;20029;-70
2021/10/19 05:22:59;;;;;;;0.20;0.20;;;;;;;;;;4937218;29;20035;-72
2021/10/19 05:25:26;;;;;;;0.50;0.20;;;;;;;;;;4937373;29;20491;-73
2021/10/19 05:27:52;;;;;;;0.17;0.10;;;;;;;;;;4937393;29;20031;-71
2021/10/19 05:30:19;;;;;;;1.02;0.40;;;;;;;;;;4937486;29;20031;-71
2021/10/19 05:32:55;;;;;;;1.20;0.30;;;;;;;;;;4937135;29;20471;-73
2021/10/19 05:35:51;;;;;;;0.20;0.10;;;;;;;;;;4937282;29;20036;-72
2021/10/19 05:38:27;;;;;;;0.60;0.30;;;;;;;;;;4862371;29;20029;-70
2021/10/19 05:40:54;;;;;;;0.30;0.20;;;;;;;;;;4862019;29;20033;-73
2021/10/19 05:43:21;;;;;;;0.38;0.20;;;;;;;;;;4862151;29;20037;-72
2021/10/19 05:45:46;;;;;;;0.68;0.20;;;;;;;;;;4861927;29;20465;-70
2021/10/19 05:48:42;;;;;;;0.80;0.20;;;;;;;;;;4861916;29;20041;-70
2021/10/19 05:51:21;;;;;;;1.13;0.22;;;;;;;;;;4806773;29;20047;-72
2021/10/19 05:53:46;;;;;;;1.70;0.10;;;;;;;;;;4806556;29;20059;-70
2021/10/19 05:56:12;;;;;;;1.10;0.22;;;;;;;;;;4807038;29;20085;-70
2021/10/19 05:58:39;;;;;;;0.65;0.20;;;;;;;;;;4817104;29;20037;-71
2021/10/19 06:01:05;;;;;;;0.77;0.25;;;;;;;;;;4870828;29;20045;-72
2021/10/19 06:03:30;;;;;;;0.10;0.10;;;;;;;;;;4861935;29;20145;-71
2021/10/19 06:05:56;;;;;;;1.40;0.33;;;;;;;;;;4861675;29;20469;-71
2021/10/19 06:08:22;;;;;;;1.17;0.40;;;;;;;;;;4861597;29;20272;-72
2021/10/19 06:10:56;;;;;;;0.35;0.20;;;;;;;;;;4861588;29;20025;-72
2021/10/19 06:13:22;;;;;;;1.27;0.55;;;;;;;;;;4861416;29;20037;-72
2021/10/19 06:15:47;;;;;;;0.73;0.10;;;;;;;;;;4934275;29;20024;-71
2021/10/19 06:18:13;;;;;;;1.73;0.25;;;;;;;;;;4936330;29;20023;-72
2021/10/19 06:20:49;;;;;;;0.30;0.20;;;;;;;;;;4936505;29;20728;-71
2021/10/19 06:23:23;;;;;;;4.45;0.90;;;;;;;;;;4920581;29;20035;-72
2021/10/19 06:25:49;;;;;;;0.03;0.03;;;;;;;;;;4936501;29;20031;-72
2021/10/19 06:28:16;;;;;;;0.77;0.40;;;;;;;;;;4964565;28;20158;-72
2021/10/19 06:30:49;;;;;;;0.45;0.30;;;;;;;;;;4976735;28;20038;-72
2021/10/19 06:33:16;;;;;;;1.88;0.20;;;;;;;;;;4976951;28;20031;-72
2021/10/19 06:35:41;;;;;;;0.40;0.17;;;;;;;;;;4976532;28;20351;-71
2021/10/19 06:38:08;;;;;;;0.40;0.10;;;;;;;;;;4976794;28;20015;-70
2021/10/19 06:40:34;;;;;;;0.98;0.20;;;;;;;;;;4975373;28;20015;-70
2021/10/19 06:43:00;;;;;;;0.65;0.38;;;;;;;;;;4976747;28;20037;-70
2021/10/19 06:45:25;;;;;;;0.68;0.28;;;;;;;;;;4976261;28;20018;-71
2021/10/19 06:47:52;;;;;;;0.63;0.35;;;;;;;;;;4976456;28;20027;-71
2021/10/19 06:50:18;;;;;;;0.93;0.20;;;;;;;;;;4976591;28;20102;-71
2021/10/19 06:52:49;;;;;;;0.52;0.17;;;;;;;;;;4975150;28;20105;-71
2021/10/19 06:55:28;;;;;;;2.25;0.40;;;;;;;;;;4975038;28;20022;-70
2021/10/19 06:58:00;;;;;;;0.85;0.10;;;;;;;;;;4976306;28;20427;-72
2021/10/19 07:00:35;;;;;;;0.70;0.20;;;;;;;;;;4974957;28;20455;-71
2021/10/19 07:03:00;;;;;;;0.90;0.20;;;;;;;;;;5007068;28;20049;-70
2021/10/19 07:05:27;;;;;;;0.95;0.20;;;;;;;;;;5015267;28;20033;-71
2021/10/19 07:07:53;;;;;;;0.20;0.20;;;;;;;;;;5015010;28;20053;-72
2021/10/19 07:10:20;;;;;;;0.73;0.20;;;;;;;;;;5015250;28;20061;-70
2021/10/19 07:12:46;;;;;;;0.55;0.20;;;;;;;;;;5014653;28;20033;-71
2021/10/19 07:15:24;;;;;;;0.57;0.15;;;;;;;;;;5013783;28;20022;-71
2021/10/19 07:17:50;;;;;;;0.80;0.30;;;;;;;;;;5014972;28;20033;-72
2021/10/19 07:20:15;;;;;;;0.73;0.10;;;;;;;;;;5014720;28;20028;-71
2021/10/19 07:22:42;;;;;;;1.52;0.30;;;;;;;;;;5014867;28;20022;-71
2021/10/19 07:25:22;;;;;;;0.10;0.10;;;;;;;;;;5014743;28;20032;-71
2021/10/19 07:27:57;;;;;;;0.45;0.10;;;;;;;;;;5014638;28;20022;-71
2021/10/19 07:30:22;;;;;;;0.22;0.10;;;;;;;;;;5014027;28;20026;-70
2021/10/19 07:32:47;;;;;;;1.52;0.20;;;;;;;;;;5014569;28;20037;-71
2021/10/19 07:35:14;;;;;;;1.85;0.13;;;;;;;;;;5014695;28;20025;-71
2021/10/19 07:37:42;;;;;;;1.42;0.47;;;;;;;;;;5014670;28;20063;-71
2021/10/19 07:40:08;;;;;;;0.30;0.20;;;;;;;;;;5014627;28;20029;-71
2021/10/19 07:42:35;;;;;;;0.20;0.10;;;;;;;;;;5014368;28;20032;-72
2021/10/19 07:45:11;;;;;;;0.70;0.20;;;;;;;;;;5014686;28;20026;-72
2021/10/19 07:47:43;;;;;;;0.60;0.30;;;;;;;;;;5013264;28;20025;-71
2021/10/19 07:50:10;;;;;;;0.25;0.10;;;;;;;;;;5013309;28;20022;-72
2021/10/19 07:52:35;;;;;;;2.45;0.28;;;;;;;;;;5014307;28;20021;-73
2021/10/19 07:55:06;;;;;;;1.10;0.77;;;;;;;;;;5013711;28;20369;-72
2021/10/19 07:57:31;;;;;;;0.95;0.20;;;;;;;;;;5013026;28;20287;-71
2021/10/19 08:00:07;;;;;;;1.10;0.50;;;;;;;;;;5032614;28;20045;-71
2021/10/19 08:02:32;;;;;;;0.93;0.32;;;;;;;;;;5032507;28;20855;-73
2021/10/19 08:04:57;;;;;;;0.38;0.20;;;;;;;;;;5032922;28;20148;-73
2021/10/19 08:07:23;;;;;;;0.20;0.08;;;;;;;;;;5032762;28;20014;-72
2021/10/19 08:09:48;;;;;;;1.05;0.20;;;;;;;;;;5032826;28;20060;-67
2021/10/19 08:12:15;;;;;;;0.57;0.10;;;;;;;;;;5032284;28;20464;-68
2021/10/19 08:14:40;;;;;;;6.47;0.40;;;;;;;;;;5033161;28;20021;-66
2021/10/19 08:17:06;;;;;;;1.20;0.20;;;;;;;;;;5031856;28;20005;-66
2021/10/19 08:19:31;;;;;;;1.83;0.20;;;;;;;;;;5031928;28;20022;-64
2021/10/19 08:21:56;;;;;;;0.90;0.27;;;;;;;;;;5033134;28;20092;-68
2021/10/19 08:24:21;;;;;;;0.82;0.20;;;;;;;;;;5031707;28;20259;-65
2021/10/19 08:26:46;;;;;;;1.02;0.10;;;;;;;;;;5031906;28;20053;-67
2021/10/19 08:29:12;;;;;;;1.17;0.15;;;;;;;;;;5032092;28;20032;-68
2021/10/19 08:31:37;;;;;;;1.45;0.20;;;;;;;;;;5032576;28;20029;-66
2021/10/19 08:34:02;;;;;;;0.88;0.20;;;;;;;;;;5032825;28;20028;-67
2021/10/19 08:36:27;;;;;;;0.52;0.10;;;;;;;;;;5032737;28;20024;-67
2021/10/19 08:38:53;;;;;;;0.88;0.22;;;;;;;;;;5033079;28;20022;-68
2021/10/19 08:41:19;;;;;;;0.43;0.20;;;;;;;;;;5034235;28;20104;-67
2021/10/19 08:43:45;;;;;;;0.68;0.08;;;;;;;;;;5041940;28;20059;-68
2021/10/19 08:46:11;;;;;;;0.60;0.30;;;;;;;;;;5052123;28;20109;-67
2021/10/19 08:48:38;;;;;;;0.10;0.10;;;;;;;;;;5036690;28;20425;-68
2021/10/19 08:51:03;;;;;;;0.22;0.20;;;;;;;;;;5035571;28;20010;-69
2021/10/19 08:53:28;;;;;;;0.35;0.10;;;;;;;;;;5035946;28;20514;-68
2021/10/19 08:55:54;;;;;;;0.60;0.10;;;;;;;;;;5034733;28;20046;-67
2021/10/19 08:58:19;;;;;;;0.28;0.10;;;;;;;;;;5036045;28;20468;-68
2021/10/19 09:00:44;;;;;;;0.30;0.17;;;;;;;;;;5035285;28;20428;-67
2021/10/19 09:03:10;;;;;;;0.08;0.08;;;;;;;;;;5034405;28;20045;-67
2021/10/19 09:05:35;;;;;;;0.50;0.10;;;;;;;;;;5036169;28;20030;-67
2021/10/19 09:08:01;;;;;;;0.47;0.00;;;;;;;;;;5035271;28;20021;-66
2021/10/19 09:10:30;;;;;;;0.17;0.10;;;;;;;;;;5035777;28;20480;-66
2021/10/19 09:12:56;;;;;;;1.58;0.30;;;;;;;;;;5033486;28;20125;-67
2021/10/19 09:15:26;;;;;;;2.22;0.10;;;;;;;;;;5034297;28;20030;-69
2021/10/19 09:17:51;;;;;;;0.82;0.38;;;;;;;;;;5035153;28;20392;-68
2021/10/19 09:20:17;;;;;;;0.10;0.10;;;;;;;;;;5035309;28;20020;-69
2021/10/19 09:22:56;;;;;;;1.30;0.30;;;;;;;;;;5039323;28;20029;-69
2021/10/19 09:25:27;;;;;;;2.08;0.10;;;;;;;;;;5036243;28;20041;-69
2021/10/19 09:27:54;;;;;;;1.08;0.10;;;;;;;;;;5042394;28;20025;-69
2021/10/19 09:30:23;;;;;;;0.32;0.10;;;;;;;;;;5034172;28;20072;-66
2021/10/19 09:32:52;;;;;;;0.40;0.10;;;;;;;;;;5038801;28;20045;-64
2021/10/19 09:35:21;;;;;;;1.52;0.20;;;;;;;;;;5035718;28;20077;-67
2021/10/19 09:37:54;;;;;;;0.35;0.00;;;;;;;;;;5036434;28;20112;-70
2021/10/19 09:40:28;;;;;;;0.63;0.10;;;;;;;;;;5035354;28;20028;-68
2021/10/19 09:42:57;;;;;;;1.35;0.43;;;;;;;;;;5034609;28;20449;-68
2021/10/19 09:45:24;;;;;;;3.33;0.22;;;;;;;;;;5035687;28;20037;-69
2021/10/19 09:47:51;;;;;;;0.82;0.20;;;;;;;;;;5040176;28;20452;-72
2021/10/19 09:50:16;;;;;;;1.13;0.20;;;;;;;;;;5031451;28;20064;-66
2021/10/19 09:52:43;;;;;;;1.20;0.20;;;;;;;;;;5037620;28;20028;-65
2021/10/19 09:55:12;;;;;;;0.30;0.13;;;;;;;;;;5035446;28;20014;-67
2021/10/19 09:57:38;;;;;;;1.17;0.10;;;;;;;;;;5024287;28;20020;-67
2021/10/19 10:00:04;;;;;;;0.47;0.00;;;;;;;;;;5034964;28;20021;-69
2021/10/19 10:02:30;;;;;;;0.10;0.10;;;;;;;;;;5034818;28;20053;-69
2021/10/19 10:04:55;;;;;;;0.20;0.20;;;;;;;;;;5035101;28;20096;-69
2021/10/19 10:07:21;;;;;;;0.65;0.08;;;;;;;;;;5034639;28;20029;-68
2021/10/19 10:09:47;;;;;;;0.90;0.15;;;;;;;;;;5035163;28;20025;-67
2021/10/19 10:12:12;;;;;;;0.30;0.17;;;;;;;;;;5034777;28;20021;-68
2021/10/19 10:14:44;;;;;;;0.38;0.10;;;;;;;;;;5034385;28;20022;-67
2021/10/19 10:17:12;;;;;;;1.60;0.17;;;;;;;;;;5035847;28;20068;-67
2021/10/19 10:19:38;;;;;;;0.70;0.20;;;;;;;;;;5034280;28;20075;-67
2021/10/19 10:22:13;;;;;;;0.40;0.30;;;;;;;;;;5034012;28;20021;-67
2021/10/19 10:24:39;;;;;;;0.80;0.08;;;;;;;;;;5034745;28;20636;-67
2021/10/19 10:27:08;;;;;;;0.15;0.10;;;;;;;;;;5034858;28;20066;-66
2021/10/19 10:29:42;;;;;;;0.25;0.10;;;;;;;;;;5034764;28;20017;-67
2021/10/19 10:32:07;;;;;;;0.70;0.17;;;;;;;;;;5034528;28;20043;-67
2021/10/19 10:34:33;;;;;;;0.30;0.20;;;;;;;;;;5034527;28;20441;-67
2021/10/19 10:37:12;;;;;;;0.40;0.10;;;;;;;;;;5034752;28;20025;-67
2021/10/19 10:39:43;;;;;;;1.15;0.30;;;;;;;;;;5034562;28;20367;-67
2021/10/19 10:42:09;;;;;;;0.40;0.15;;;;;;;;;;5034750;28;20026;-67
2021/10/19 10:44:35;;;;;;;0.10;0.10;;;;;;;;;;5034345;28;20063;-67
2021/10/19 10:47:04;;;;;;;0.30;0.13;;;;;;;;;;5034696;28;20029;-66
2021/10/19 10:49:30;;;;;;;0.52;0.25;;;;;;;;;;5034073;28;20460;-67
2021/10/19 10:51:55;;;;;;;1.17;0.10;;;;;;;;;;5034507;28;20057;-68
2021/10/19 10:54:22;;;;;;;0.33;0.10;;;;;;;;;;5033867;28;20126;-68
2021/10/19 10:56:49;;;;;;;0.38;0.28;;;;;;;;;;5033717;28;20266;-68
2021/10/19 10:59:27;;;;;;;0.22;0.10;;;;;;;;;;5033736;28;20457;-68
2021/10/19 11:01:54;;;;;;;0.30;0.10;;;;;;;;;;5046224;28;20504;-68
2021/10/19 11:04:19;;;;;;;0.77;0.20;;;;;;;;;;5032925;28;20057;-68
2021/10/19 11:06:44;;;;;;;0.52;0.35;;;;;;;;;;5032852;28;20476;-68
2021/10/19 11:09:11;;;;;;;0.47;0.30;;;;;;;;;;5043394;28;20033;-68
2021/10/19 11:11:38;;;;;;;0.40;0.08;;;;;;;;;;5044248;28;20017;-68
2021/10/19 11:14:04;;;;;;;0.30;0.10;;;;;;;;;;5033892;28;20041;-68
2021/10/19 11:16:39;;;;;;;0.20;0.10;;;;;;;;;;5031698;28;20380;-68
2021/10/19 11:19:11;;;;;;;0.60;0.30;;;;;;;;;;5034851;28;20018;-70
2021/10/19 11:21:36;;;;;;;0.63;0.22;;;;;;;;;;5038554;28;20033;-69
2021/10/19 11:24:01;;;;;;;0.20;0.00;;;;;;;;;;5032358;28;20028;-69
2021/10/19 11:26:27;;;;;;;1.50;0.10;;;;;;;;;;5022302;28;20262;-69
2021/10/19 11:28:54;;;;;;;0.47;0.20;;;;;;;;;;5028639;28;20018;-69
2021/10/19 11:31:21;;;;;;;0.20;0.13;;;;;;;;;;5033637;28;20457;-66
2021/10/19 11:33:46;;;;;;;0.40;0.10;;;;;;;;;;5032982;28;20083;-71
2021/10/19 11:36:13;;;;;;;1.15;0.25;;;;;;;;;;5032151;28;20357;-70
2021/10/19 11:38:39;;;;;;;0.75;0.10;;;;;;;;;;5037305;28;20018;-72
2021/10/19 11:41:15;;;;;;;0.20;0.20;;;;;;;;;;5035361;28;20029;-72
2021/10/19 11:44:09;;;;;;;1.85;0.10;;;;;;;;;;5032888;28;20029;-71
2021/10/19 11:46:36;;;;;;;0.20;0.10;;;;;;;;;;4956496;28;20038;-71
2021/10/19 11:49:21;;;;;;;0.45;0.17;;;;;;;;;;4973208;28;20062;-72
2021/10/19 11:51:48;;;;;;;0.73;0.20;;;;;;;;;;4973309;28;20367;-71
2021/10/19 11:54:14;;;;;;;0.55;0.35;;;;;;;;;;4977386;28;20054;-71
2021/10/19 11:56:52;;;;;;;0.20;0.20;;;;;;;;;;4956797;28;20470;-71
2021/10/19 11:59:17;;;;;;;0.25;0.00;;;;;;;;;;4967716;28;20022;-72
2021/10/19 12:01:43;;;;;;;1.48;0.20;;;;;;;;;;4969409;28;20035;-72
2021/10/19 12:04:11;;;;;;;1.73;0.10;;;;;;;;;;4973219;28;20043;-72
2021/10/19 12:06:40;;;;;;;0.30;0.10;;;;;;;;;;4956049;28;20351;-73
2021/10/19 12:09:19;;;;;;;0.17;0.00;;;;;;;;;;4973128;28;20037;-73
2021/10/19 12:11:53;;;;;;;0.90;0.35;;;;;;;;;;4966045;28;20106;-72
2021/10/19 12:14:34;;;;;;;0.45;0.10;;;;;;;;;;4972922;28;20106;-72
2021/10/19 12:17:02;;;;;;;0.38;0.00;;;;;;;;;;4977264;28;20465;-73
2021/10/19 12:19:29;;;;;;;0.20;0.05;;;;;;;;;;4979377;28;20038;-73
2021/10/19 12:21:58;;;;;;;0.80;0.30;;;;;;;;;;4979453;28;20066;-73
2021/10/19 12:24:34;;;;;;;0.30;0.10;;;;;;;;;;5015302;28;20034;-73
2021/10/19 12:27:04;;;;;;;0.45;0.20;;;;;;;;;;5020597;28;20053;-72
2021/10/19 12:29:31;;;;;;;0.10;0.10;;;;;;;;;;5020454;28;20029;-73
2021/10/19 12:32:06;;;;;;;0.10;0.10;;;;;;;;;;5020311;28;20591;-72
2021/10/19 12:34:37;;;;;;;0.30;0.20;;;;;;;;;;5020325;28;20063;-71
2021/10/19 12:37:15;;;;;;;0.10;0.10;;;;;;;;;;5020565;28;20416;-71
2021/10/19 12:39:45;;;;;;;0.40;0.10;;;;;;;;;;5018533;28;20018;-71
2021/10/19 12:42:13;;;;;;;0.73;0.10;;;;;;;;;;5020367;28;20022;-71
2021/10/19 12:44:40;;;;;;;1.30;0.47;;;;;;;;;;5020568;28;20140;-71
2021/10/19 12:47:06;;;;;;;1.30;0.10;;;;;;;;;;5020306;28;20018;-71
2021/10/19 12:49:33;;;;;;;0.20;0.10;;;;;;;;;;5019832;28;20025;-71
2021/10/19 12:51:58;;;;;;;0.55;0.10;;;;;;;;;;5026613;28;20173;-72
2021/10/19 12:54:24;;;;;;;0.53;0.10;;;;;;;;;;5012102;28;20501;-71
2021/10/19 12:56:52;;;;;;;0.10;0.05;;;;;;;;;;5019659;28;20614;-71
2021/10/19 12:59:24;;;;;;;1.17;0.10;;;;;;;;;;5019712;28;20018;-71
2021/10/19 13:01:49;;;;;;;1.27;0.20;;;;;;;;;;5017529;28;20061;-69
2021/10/19 13:04:15;;;;;;;0.00;0.00;;;;;;;;;;5032136;28;20492;-70
2021/10/19 13:06:40;;;;;;;0.90;0.10;;;;;;;;;;5037064;28;20033;-66
2021/10/19 13:09:06;;;;;;;1.55;0.20;;;;;;;;;;5039029;28;20037;-69
2021/10/19 13:11:32;;;;;;;0.38;0.05;;;;;;;;;;5024483;28;20018;-68
2021/10/19 13:13:57;;;;;;;1.02;0.20;;;;;;;;;;5023320;28;20507;-67
2021/10/19 13:16:22;;;;;;;1.35;0.10;;;;;;;;;;5032316;28;20024;-68
2021/10/19 13:18:48;;;;;;;0.28;0.10;;;;;;;;;;5025222;28;20017;-68
2021/10/19 13:21:14;;;;;;;1.65;0.10;;;;;;;;;;5039483;28;20045;-64
2021/10/19 13:23:39;;;;;;;0.55;0.10;;;;;;;;;;5039685;28;20514;-70
2021/10/19 13:26:05;;;;;;;2.45;0.17;;;;;;;;;;5039744;28;20114;-71
2021/10/19 13:28:31;;;;;;;1.98;0.32;;;;;;;;;;5035822;28;20059;-68
2021/10/19 13:30:58;;;;;;;1.00;0.20;;;;;;;;;;5035769;28;20033;-72
2021/10/19 13:33:24;;;;;;;1.40;0.20;;;;;;;;;;5036199;28;20021;-69
2021/10/19 13:35:49;;;;;;;0.55;0.00;;;;;;;;;;5035049;28;20144;-68
2021/10/19 13:38:14;;;;;;;2.17;0.32;;;;;;;;;;5035822;28;20017;-69
2021/10/19 13:40:43;;;;;;;0.47;0.08;;;;;;;;;;5034978;28;20040;-65
2021/10/19 13:43:08;;;;;;;0.10;0.10;;;;;;;;;;5036156;28;20021;-69
2021/10/19 13:45:33;;;;;;;1.80;0.10;;;;;;;;;;5034839;28;20024;-66
2021/10/19 13:47:59;;;;;;;1.83;0.17;;;;;;;;;;5034771;28;20075;-67
2021/10/19 13:50:24;;;;;;;3.63;0.10;;;;;;;;;;5035015;28;20052;-70
2021/10/19 13:52:50;;;;;;;0.43;0.10;;;;;;;;;;5033887;28;20460;-67
2021/10/19 13:55:18;;;;;;;0.45;0.08;;;;;;;;;;5034979;28;20040;-68
2021/10/19 13:57:44;;;;;;;0.63;0.17;;;;;;;;;;5033662;28;20014;-67
2021/10/19 14:00:11;;;;;;;2.10;0.28;;;;;;;;;;5034563;28;20376;-68
2021/10/19 14:02:37;;;;;;;0.22;0.10;;;;;;;;;;5038396;28;20037;-66
2021/10/19 14:05:03;;;;;;;0.52;0.10;;;;;;;;;;5030888;28;20036;-67
2021/10/19 14:07:29;;;;;;;0.70;0.10;;;;;;;;;;5034056;28;20021;-68
2021/10/19 14:09:55;;;;;;;2.00;0.13;;;;;;;;;;5035036;28;20028;-64
2021/10/19 14:12:20;;;;;;;0.65;0.20;;;;;;;;;;5033988;28;20389;-64
2021/10/19 14:14:46;;;;;;;0.30;0.10;;;;;;;;;;5033304;28;20021;-64
2021/10/19 14:17:11;;;;;;;2.10;0.10;;;;;;;;;;5040786;28;20033;-64
2021/10/19 14:19:36;;;;;;;1.00;0.17;;;;;;;;;;5034877;28;20024;-64
2021/10/19 14:22:02;;;;;;;0.10;0.10;;;;;;;;;;5034936;28;20021;-64
2021/10/19 14:24:28;;;;;;;0.30;0.00;;;;;;;;;;5034155;28;20029;-63
2021/10/19 14:26:53;;;;;;;0.10;0.10;;;;;;;;;;5034616;28;20441;-64
2021/10/19 14:29:18;;;;;;;0.10;0.10;;;;;;;;;;5034855;28;20411;-64
2021/10/19 14:31:46;;;;;;;0.20;0.08;;;;;;;;;;5034741;28;20040;-64
2021/10/19 14:34:14;;;;;;;0.32;0.10;;;;;;;;;;5034629;28;20028;-64
2021/10/19 14:36:39;;;;;;;0.88;0.08;;;;;;;;;;5034553;28;20408;-63
2021/10/19 14:39:05;;;;;;;0.10;0.00;;;;;;;;;;5034294;28;20022;-64
2021/10/19 14:41:30;;;;;;;0.47;0.08;;;;;;;;;;5034641;28;20027;-64
2021/10/19 14:43:55;;;;;;;1.00;0.10;;;;;;;;;;5034616;28;20461;-64
2021/10/19 14:46:20;;;;;;;0.43;0.10;;;;;;;;;;5034289;28;20335;-64
2021/10/19 14:48:46;;;;;;;0.20;0.10;;;;;;;;;;5034121;28;20071;-64
2021/10/19 14:51:11;;;;;;;0.57;0.10;;;;;;;;;;5034136;28;20060;-65